sensor_id;sensor_type;location;lat;lon;timestamp;P1;durP1;ratioP1;P2;durP2;ratioP2
14939;SDS011;11825;51.898;8.202;2022-08-21T00:03:36;7.03;;;6.33;;
14939;SDS011;11825;51.898;8.202;2022-08-21T00:08:39;14.37;;;9.57;;
14939;SDS011;11825;51.898;8.202;2022-08-21T00:13:41;10.53;;;8.43;;
14939;SDS011;11825;51.898;8.202;2022-08-21T00:18:43;9.60;;;8.23;;
14939;SDS011;11825;51.898;8.202;2022-08-21T00:23:44;8.43;;;7.60;;
14939;SDS011;11825;51.898;8.202;2022-08-21T00:28:46;10.53;;;6.63;;
14939;SDS011;11825;51.898;8.202;2022-08-21T00:33:50;11.80;;;9.53;;
14939;SDS011;11825;51.898;8.202;2022-08-21T00:38:51;7.20;;;6.60;;
14939;SDS011;11825;51.898;8.202;2022-08-21T00:43:53;8.67;;;6.90;;
14939;SDS011;11825;51.898;8.202;2022-08-21T00:48:55;7.70;;;6.93;;
14939;SDS011;11825;51.898;8.202;2022-08-21T00:53:59;10.33;;;7.00;;
14939;SDS011;11825;51.898;8.202;2022-08-21T00:59:03;8.17;;;5.77;;
14939;SDS011;11825;51.898;8.202;2022-08-21T01:04:05;8.80;;;7.63;;
14939;SDS011;11825;51.898;8.202;2022-08-21T01:09:07;8.60;;;7.37;;
14939;SDS011;11825;51.898;8.202;2022-08-21T01:14:10;8.37;;;6.47;;
14939;SDS011;11825;51.898;8.202;2022-08-21T01:19:13;9.90;;;6.53;;
14939;SDS011;11825;51.898;8.202;2022-08-21T01:24:16;6.77;;;6.17;;
14939;SDS011;11825;51.898;8.202;2022-08-21T01:34:57;9.63;;;5.90;;
14939;SDS011;11825;51.898;8.202;2022-08-21T01:39:59;8.27;;;6.50;;
14939;SDS011;11825;51.898;8.202;2022-08-21T01:45:01;7.60;;;6.07;;
14939;SDS011;11825;51.898;8.202;2022-08-21T01:50:05;8.13;;;6.27;;
14939;SDS011;11825;51.898;8.202;2022-08-21T01:55:09;7.57;;;6.87;;
14939;SDS011;11825;51.898;8.202;2022-08-21T02:00:12;10.53;;;7.13;;
14939;SDS011;11825;51.898;8.202;2022-08-21T02:05:15;8.67;;;7.63;;
14939;SDS011;11825;51.898;8.202;2022-08-21T02:10:28;8.20;;;6.93;;
14939;SDS011;11825;51.898;8.202;2022-08-21T02:15:31;7.63;;;6.37;;
14939;SDS011;11825;51.898;8.202;2022-08-21T02:20:34;8.50;;;7.03;;
14939;SDS011;11825;51.898;8.202;2022-08-21T02:25:40;8.83;;;7.57;;
14939;SDS011;11825;51.898;8.202;2022-08-21T02:30:44;10.20;;;7.23;;
14939;SDS011;11825;51.898;8.202;2022-08-21T02:35:49;9.13;;;6.77;;
14939;SDS011;11825;51.898;8.202;2022-08-21T02:40:51;8.33;;;7.53;;
14939;SDS011;11825;51.898;8.202;2022-08-21T02:45:54;8.33;;;7.50;;
14939;SDS011;11825;51.898;8.202;2022-08-21T02:50:58;9.20;;;8.33;;
14939;SDS011;11825;51.898;8.202;2022-08-21T02:56:03;8.43;;;7.60;;
14939;SDS011;11825;51.898;8.202;2022-08-21T03:01:08;8.67;;;7.77;;
14939;SDS011;11825;51.898;8.202;2022-08-21T03:06:20;9.57;;;7.93;;
14939;SDS011;11825;51.898;8.202;2022-08-21T03:11:23;9.83;;;8.20;;
14939;SDS011;11825;51.898;8.202;2022-08-21T03:16:25;10.10;;;8.63;;
14939;SDS011;11825;51.898;8.202;2022-08-21T03:21:36;11.37;;;8.63;;
14939;SDS011;11825;51.898;8.202;2022-08-21T03:26:37;10.20;;;7.67;;
14939;SDS011;11825;51.898;8.202;2022-08-21T03:31:41;10.90;;;8.40;;
14939;SDS011;11825;51.898;8.202;2022-08-21T03:36:43;9.07;;;7.20;;
14939;SDS011;11825;51.898;8.202;2022-08-21T03:41:45;9.97;;;8.03;;
14939;SDS011;11825;51.898;8.202;2022-08-21T03:46:55;10.43;;;8.00;;
14939;SDS011;11825;51.898;8.202;2022-08-21T03:51:58;8.77;;;7.37;;
14939;SDS011;11825;51.898;8.202;2022-08-21T03:57:00;8.27;;;7.43;;
14939;SDS011;11825;51.898;8.202;2022-08-21T04:02:02;8.10;;;7.40;;
14939;SDS011;11825;51.898;8.202;2022-08-21T04:07:05;11.13;;;8.20;;
14939;SDS011;11825;51.898;8.202;2022-08-21T04:12:07;7.83;;;7.10;;
14939;SDS011;11825;51.898;8.202;2022-08-21T04:17:09;11.00;;;8.03;;
14939;SDS011;11825;51.898;8.202;2022-08-21T04:22:11;16.57;;;9.23;;
14939;SDS011;11825;51.898;8.202;2022-08-21T04:27:13;10.43;;;9.47;;
14939;SDS011;11825;51.898;8.202;2022-08-21T04:32:20;8.90;;;8.13;;
14939;SDS011;11825;51.898;8.202;2022-08-21T04:37:25;10.17;;;9.13;;
14939;SDS011;11825;51.898;8.202;2022-08-21T04:42:28;9.80;;;8.73;;
14939;SDS011;11825;51.898;8.202;2022-08-21T04:47:29;9.90;;;9.00;;
14939;SDS011;11825;51.898;8.202;2022-08-21T04:52:51;14.23;;;8.53;;
14939;SDS011;11825;51.898;8.202;2022-08-21T04:57:54;10.37;;;8.63;;
14939;SDS011;11825;51.898;8.202;2022-08-21T05:02:57;9.13;;;8.07;;
14939;SDS011;11825;51.898;8.202;2022-08-21T05:08:01;12.67;;;8.97;;
14939;SDS011;11825;51.898;8.202;2022-08-21T05:13:05;12.00;;;9.13;;
14939;SDS011;11825;51.898;8.202;2022-08-21T05:18:09;10.67;;;8.33;;
14939;SDS011;11825;51.898;8.202;2022-08-21T05:23:12;9.83;;;8.57;;
14939;SDS011;11825;51.898;8.202;2022-08-21T05:28:14;9.70;;;7.97;;
14939;SDS011;11825;51.898;8.202;2022-08-21T05:33:16;9.70;;;8.73;;
14939;SDS011;11825;51.898;8.202;2022-08-21T05:38:18;9.57;;;8.67;;
14939;SDS011;11825;51.898;8.202;2022-08-21T05:43:20;8.80;;;8.00;;
14939;SDS011;11825;51.898;8.202;2022-08-21T05:48:23;10.33;;;9.00;;
14939;SDS011;11825;51.898;8.202;2022-08-21T05:53:25;12.90;;;8.73;;
14939;SDS011;11825;51.898;8.202;2022-08-21T05:58:27;10.90;;;8.73;;
14939;SDS011;11825;51.898;8.202;2022-08-21T06:03:33;11.13;;;9.80;;
14939;SDS011;11825;51.898;8.202;2022-08-21T06:08:41;9.53;;;8.67;;
14939;SDS011;11825;51.898;8.202;2022-08-21T06:19:51;12.50;;;10.03;;
14939;SDS011;11825;51.898;8.202;2022-08-21T06:25:35;11.00;;;9.40;;
14939;SDS011;11825;51.898;8.202;2022-08-21T06:31:35;15.63;;;9.67;;
14939;SDS011;11825;51.898;8.202;2022-08-21T06:37:14;14.00;;;10.63;;
14939;SDS011;11825;51.898;8.202;2022-08-21T06:42:44;12.00;;;10.90;;
14939;SDS011;11825;51.898;8.202;2022-08-21T06:48:03;13.37;;;10.53;;
14939;SDS011;11825;51.898;8.202;2022-08-21T06:53:26;12.00;;;10.73;;
14939;SDS011;11825;51.898;8.202;2022-08-21T06:58:42;12.07;;;10.27;;
14939;SDS011;11825;51.898;8.202;2022-08-21T07:04:02;13.13;;;11.83;;
14939;SDS011;11825;51.898;8.202;2022-08-21T07:09:22;11.23;;;10.23;;
14939;SDS011;11825;51.898;8.202;2022-08-21T07:14:25;11.30;;;10.20;;
14939;SDS011;11825;51.898;8.202;2022-08-21T07:19:27;10.93;;;9.77;;
14939;SDS011;11825;51.898;8.202;2022-08-21T07:24:29;14.83;;;10.93;;
14939;SDS011;11825;51.898;8.202;2022-08-21T07:29:31;17.83;;;11.23;;
14939;SDS011;11825;51.898;8.202;2022-08-21T07:34:36;11.17;;;10.07;;
14939;SDS011;11825;51.898;8.202;2022-08-21T07:39:44;9.93;;;8.33;;
14939;SDS011;11825;51.898;8.202;2022-08-21T07:45:11;15.00;;;9.33;;
14939;SDS011;11825;51.898;8.202;2022-08-21T07:50:13;9.03;;;7.17;;
14939;SDS011;11825;51.898;8.202;2022-08-21T07:55:17;7.63;;;6.60;;
14939;SDS011;11825;51.898;8.202;2022-08-21T08:00:22;8.20;;;5.27;;
14939;SDS011;11825;51.898;8.202;2022-08-21T08:05:30;7.33;;;4.20;;
14939;SDS011;11825;51.898;8.202;2022-08-21T08:10:33;4.30;;;3.33;;
14939;SDS011;11825;51.898;8.202;2022-08-21T08:15:36;5.53;;;3.40;;
14939;SDS011;11825;51.898;8.202;2022-08-21T08:20:43;6.10;;;5.50;;
14939;SDS011;11825;51.898;8.202;2022-08-21T08:25:47;7.00;;;5.97;;
14939;SDS011;11825;51.898;8.202;2022-08-21T08:30:52;13.77;;;6.50;;
14939;SDS011;11825;51.898;8.202;2022-08-21T08:35:54;6.67;;;5.53;;
14939;SDS011;11825;51.898;8.202;2022-08-21T08:41:01;7.57;;;5.63;;
14939;SDS011;11825;51.898;8.202;2022-08-21T08:46:15;8.00;;;5.87;;
14939;SDS011;11825;51.898;8.202;2022-08-21T08:51:22;9.93;;;5.73;;
14939;SDS011;11825;51.898;8.202;2022-08-21T08:56:29;9.93;;;5.37;;
14939;SDS011;11825;51.898;8.202;2022-08-21T09:01:32;7.13;;;4.57;;
14939;SDS011;11825;51.898;8.202;2022-08-21T09:06:53;6.43;;;4.20;;
14939;SDS011;11825;51.898;8.202;2022-08-21T09:12:35;5.90;;;3.93;;
14939;SDS011;11825;51.898;8.202;2022-08-21T09:23:16;6.77;;;3.73;;
14939;SDS011;11825;51.898;8.202;2022-08-21T09:28:20;3.60;;;3.30;;
14939;SDS011;11825;51.898;8.202;2022-08-21T09:33:22;7.00;;;5.00;;
14939;SDS011;11825;51.898;8.202;2022-08-21T09:38:25;6.50;;;3.80;;
14939;SDS011;11825;51.898;8.202;2022-08-21T09:43:36;6.43;;;3.97;;
14939;SDS011;11825;51.898;8.202;2022-08-21T09:48:40;8.20;;;3.37;;
14939;SDS011;11825;51.898;8.202;2022-08-21T09:59:15;5.70;;;3.03;;
14939;SDS011;11825;51.898;8.202;2022-08-21T10:04:22;4.87;;;3.87;;
14939;SDS011;11825;51.898;8.202;2022-08-21T10:09:31;3.67;;;3.30;;
14939;SDS011;11825;51.898;8.202;2022-08-21T10:20:17;4.27;;;3.53;;
14939;SDS011;11825;51.898;8.202;2022-08-21T10:25:32;6.90;;;3.77;;
14939;SDS011;11825;51.898;8.202;2022-08-21T10:31:04;5.83;;;3.03;;
14939;SDS011;11825;51.898;8.202;2022-08-21T10:36:21;9.77;;;3.93;;
14939;SDS011;11825;51.898;8.202;2022-08-21T10:57:51;7.67;;;4.63;;
14939;SDS011;11825;51.898;8.202;2022-08-21T11:03:22;5.63;;;3.20;;
14939;SDS011;11825;51.898;8.202;2022-08-21T11:08:33;5.90;;;3.57;;
14939;SDS011;11825;51.898;8.202;2022-08-21T11:13:57;6.93;;;3.60;;
14939;SDS011;11825;51.898;8.202;2022-08-21T11:24:37;8.37;;;6.33;;
14939;SDS011;11825;51.898;8.202;2022-08-21T11:29:44;6.60;;;3.77;;
14939;SDS011;11825;51.898;8.202;2022-08-21T11:50:29;4.43;;;2.43;;
14939;SDS011;11825;51.898;8.202;2022-08-21T11:55:41;6.57;;;4.63;;
14939;SDS011;11825;51.898;8.202;2022-08-21T12:01:07;3.10;;;2.20;;
14939;SDS011;11825;51.898;8.202;2022-08-21T12:06:12;4.13;;;3.33;;
14939;SDS011;11825;51.898;8.202;2022-08-21T12:11:25;8.60;;;2.08;;
14939;SDS011;11825;51.898;8.202;2022-08-21T12:16:41;3.67;;;2.05;;
14939;SDS011;11825;51.898;8.202;2022-08-21T12:21:49;2.22;;;1.73;;
14939;SDS011;11825;51.898;8.202;2022-08-21T12:26:55;4.50;;;2.20;;
14939;SDS011;11825;51.898;8.202;2022-08-21T12:32:02;4.43;;;2.33;;
14939;SDS011;11825;51.898;8.202;2022-08-21T12:37:27;8.38;;;2.42;;
14939;SDS011;11825;51.898;8.202;2022-08-21T12:42:39;2.08;;;1.77;;
14939;SDS011;11825;51.898;8.202;2022-08-21T12:52:59;2.28;;;2.08;;
14939;SDS011;11825;51.898;8.202;2022-08-21T12:58:22;5.10;;;3.90;;
14939;SDS011;11825;51.898;8.202;2022-08-21T13:03:25;2.45;;;2.25;;
14939;SDS011;11825;51.898;8.202;2022-08-21T13:08:27;5.50;;;4.00;;
14939;SDS011;11825;51.898;8.202;2022-08-21T13:13:29;4.40;;;2.33;;
14939;SDS011;11825;51.898;8.202;2022-08-21T13:18:32;4.68;;;1.90;;
14939;SDS011;11825;51.898;8.202;2022-08-21T13:23:36;3.10;;;2.15;;
14939;SDS011;11825;51.898;8.202;2022-08-21T13:28:38;2.28;;;1.75;;
14939;SDS011;11825;51.898;8.202;2022-08-21T13:33:39;2.25;;;2.08;;
14939;SDS011;11825;51.898;8.202;2022-08-21T13:38:42;4.22;;;2.35;;
14939;SDS011;11825;51.898;8.202;2022-08-21T13:43:58;4.50;;;1.95;;
14939;SDS011;11825;51.898;8.202;2022-08-21T13:49:23;2.40;;;1.57;;
14939;SDS011;11825;51.898;8.202;2022-08-21T13:54:33;8.40;;;3.78;;
14939;SDS011;11825;51.898;8.202;2022-08-21T13:59:37;3.55;;;2.47;;
14939;SDS011;11825;51.898;8.202;2022-08-21T14:04:39;1.50;;;1.27;;
14939;SDS011;11825;51.898;8.202;2022-08-21T14:09:55;1.92;;;1.65;;
14939;SDS011;11825;51.898;8.202;2022-08-21T14:14:57;2.72;;;1.55;;
14939;SDS011;11825;51.898;8.202;2022-08-21T14:19:59;2.45;;;1.70;;
14939;SDS011;11825;51.898;8.202;2022-08-21T14:25:03;3.40;;;1.60;;
14939;SDS011;11825;51.898;8.202;2022-08-21T14:30:11;2.65;;;1.80;;
14939;SDS011;11825;51.898;8.202;2022-08-21T14:35:33;3.65;;;1.20;;
14939;SDS011;11825;51.898;8.202;2022-08-21T14:40:35;1.60;;;1.50;;
14939;SDS011;11825;51.898;8.202;2022-08-21T14:45:36;3.70;;;1.88;;
14939;SDS011;11825;51.898;8.202;2022-08-21T14:50:55;2.67;;;1.63;;
14939;SDS011;11825;51.898;8.202;2022-08-21T14:56:01;2.80;;;2.60;;
14939;SDS011;11825;51.898;8.202;2022-08-21T15:01:06;9.13;;;8.33;;
14939;SDS011;11825;51.898;8.202;2022-08-21T15:06:09;2.13;;;1.60;;
14939;SDS011;11825;51.898;8.202;2022-08-21T15:11:12;2.95;;;1.67;;
14939;SDS011;11825;51.898;8.202;2022-08-21T15:16:42;3.13;;;1.63;;
14939;SDS011;11825;51.898;8.202;2022-08-21T15:21:43;3.70;;;1.83;;
14939;SDS011;11825;51.898;8.202;2022-08-21T15:26:45;1.60;;;1.50;;
14939;SDS011;11825;51.898;8.202;2022-08-21T15:31:55;4.07;;;1.33;;
14939;SDS011;11825;51.898;8.202;2022-08-21T15:36:57;1.90;;;1.23;;
14939;SDS011;11825;51.898;8.202;2022-08-21T15:41:59;2.03;;;1.80;;
14939;SDS011;11825;51.898;8.202;2022-08-21T15:47:17;2.40;;;1.57;;
14939;SDS011;11825;51.898;8.202;2022-08-21T15:52:21;1.50;;;1.40;;
14939;SDS011;11825;51.898;8.202;2022-08-21T15:57:24;2.73;;;2.03;;
14939;SDS011;11825;51.898;8.202;2022-08-21T16:02:28;2.53;;;1.60;;
14939;SDS011;11825;51.898;8.202;2022-08-21T16:13:00;4.53;;;1.23;;
14939;SDS011;11825;51.898;8.202;2022-08-21T16:18:07;2.07;;;1.50;;
14939;SDS011;11825;51.898;8.202;2022-08-21T16:23:08;4.40;;;2.13;;
14939;SDS011;11825;51.898;8.202;2022-08-21T16:28:12;2.00;;;1.50;;
14939;SDS011;11825;51.898;8.202;2022-08-21T16:33:25;2.07;;;1.30;;
14939;SDS011;11825;51.898;8.202;2022-08-21T16:38:47;2.07;;;1.47;;
14939;SDS011;11825;51.898;8.202;2022-08-21T16:43:50;2.83;;;2.07;;
14939;SDS011;11825;51.898;8.202;2022-08-21T16:48:52;3.33;;;2.00;;
14939;SDS011;11825;51.898;8.202;2022-08-21T16:53:54;2.50;;;1.50;;
14939;SDS011;11825;51.898;8.202;2022-08-21T16:58:56;2.60;;;1.73;;
14939;SDS011;11825;51.898;8.202;2022-08-21T17:03:58;2.97;;;1.53;;
14939;SDS011;11825;51.898;8.202;2022-08-21T17:09:00;2.63;;;1.40;;
14939;SDS011;11825;51.898;8.202;2022-08-21T17:14:04;2.93;;;1.53;;
14939;SDS011;11825;51.898;8.202;2022-08-21T17:19:13;2.17;;;2.03;;
14939;SDS011;11825;51.898;8.202;2022-08-21T17:24:15;2.27;;;1.93;;
14939;SDS011;11825;51.898;8.202;2022-08-21T17:29:18;2.93;;;1.80;;
14939;SDS011;11825;51.898;8.202;2022-08-21T17:34:21;3.03;;;1.67;;
14939;SDS011;11825;51.898;8.202;2022-08-21T17:39:31;1.73;;;1.43;;
14939;SDS011;11825;51.898;8.202;2022-08-21T17:44:33;2.73;;;1.60;;
14939;SDS011;11825;51.898;8.202;2022-08-21T17:49:37;3.27;;;2.10;;
14939;SDS011;11825;51.898;8.202;2022-08-21T17:54:39;6.00;;;4.53;;
14939;SDS011;11825;51.898;8.202;2022-08-21T17:59:41;3.17;;;2.77;;
14939;SDS011;11825;51.898;8.202;2022-08-21T18:04:43;4.13;;;2.27;;
14939;SDS011;11825;51.898;8.202;2022-08-21T18:09:44;1.83;;;1.40;;
14939;SDS011;11825;51.898;8.202;2022-08-21T18:14:47;1.70;;;1.60;;
14939;SDS011;11825;51.898;8.202;2022-08-21T18:19:50;3.73;;;2.00;;
14939;SDS011;11825;51.898;8.202;2022-08-21T18:24:52;2.23;;;2.00;;
14939;SDS011;11825;51.898;8.202;2022-08-21T18:29:54;1.87;;;1.70;;
14939;SDS011;11825;51.898;8.202;2022-08-21T18:34:58;1.70;;;1.60;;
14939;SDS011;11825;51.898;8.202;2022-08-21T18:40:00;10.33;;;9.37;;
14939;SDS011;11825;51.898;8.202;2022-08-21T18:45:04;3.53;;;2.77;;
14939;SDS011;11825;51.898;8.202;2022-08-21T18:50:09;2.87;;;2.13;;
14939;SDS011;11825;51.898;8.202;2022-08-21T18:55:14;2.27;;;1.90;;
14939;SDS011;11825;51.898;8.202;2022-08-21T19:00:20;3.23;;;1.70;;
14939;SDS011;11825;51.898;8.202;2022-08-21T19:05:26;4.37;;;2.00;;
14939;SDS011;11825;51.898;8.202;2022-08-21T19:10:28;1.53;;;1.43;;
14939;SDS011;11825;51.898;8.202;2022-08-21T19:15:30;2.03;;;1.93;;
14939;SDS011;11825;51.898;8.202;2022-08-21T19:20:33;6.30;;;2.80;;
14939;SDS011;11825;51.898;8.202;2022-08-21T19:25:37;10.37;;;8.90;;
14939;SDS011;11825;51.898;8.202;2022-08-21T19:31:14;4.30;;;2.00;;
14939;SDS011;11825;51.898;8.202;2022-08-21T19:36:23;3.63;;;2.20;;
14939;SDS011;11825;51.898;8.202;2022-08-21T19:41:28;3.47;;;1.73;;
14939;SDS011;11825;51.898;8.202;2022-08-21T19:46:32;4.43;;;3.20;;
14939;SDS011;11825;51.898;8.202;2022-08-21T19:51:35;4.00;;;3.47;;
14939;SDS011;11825;51.898;8.202;2022-08-21T19:56:38;3.00;;;2.27;;
14939;SDS011;11825;51.898;8.202;2022-08-21T20:01:41;2.07;;;1.97;;
14939;SDS011;11825;51.898;8.202;2022-08-21T20:06:43;4.10;;;2.20;;
14939;SDS011;11825;51.898;8.202;2022-08-21T20:11:48;3.33;;;2.83;;
14939;SDS011;11825;51.898;8.202;2022-08-21T20:17:04;3.67;;;2.33;;
14939;SDS011;11825;51.898;8.202;2022-08-21T20:22:10;4.97;;;2.80;;
14939;SDS011;11825;51.898;8.202;2022-08-21T20:27:14;2.20;;;2.03;;
14939;SDS011;11825;51.898;8.202;2022-08-21T20:32:20;3.50;;;2.10;;
14939;SDS011;11825;51.898;8.202;2022-08-21T20:37:22;2.27;;;1.93;;
14939;SDS011;11825;51.898;8.202;2022-08-21T20:42:42;2.43;;;2.03;;
14939;SDS011;11825;51.898;8.202;2022-08-21T20:47:47;1.53;;;1.30;;
14939;SDS011;11825;51.898;8.202;2022-08-21T20:58:49;4.63;;;2.00;;
14939;SDS011;11825;51.898;8.202;2022-08-21T21:04:07;2.13;;;1.70;;
14939;SDS011;11825;51.898;8.202;2022-08-21T21:09:24;5.70;;;2.23;;
14939;SDS011;11825;51.898;8.202;2022-08-21T21:14:57;2.80;;;1.87;;
14939;SDS011;11825;51.898;8.202;2022-08-21T21:20:03;4.73;;;1.53;;
14939;SDS011;11825;51.898;8.202;2022-08-21T21:25:28;2.53;;;1.97;;
14939;SDS011;11825;51.898;8.202;2022-08-21T21:30:42;2.33;;;1.67;;
14939;SDS011;11825;51.898;8.202;2022-08-21T21:35:54;2.70;;;1.90;;
14939;SDS011;11825;51.898;8.202;2022-08-21T21:46:38;2.73;;;2.23;;
14939;SDS011;11825;51.898;8.202;2022-08-21T21:51:58;4.40;;;3.47;;
14939;SDS011;11825;51.898;8.202;2022-08-21T22:03:26;2.90;;;2.17;;
14939;SDS011;11825;51.898;8.202;2022-08-21T22:13:53;3.20;;;2.33;;
14939;SDS011;11825;51.898;8.202;2022-08-21T22:19:20;3.53;;;1.93;;
14939;SDS011;11825;51.898;8.202;2022-08-21T22:24:26;3.33;;;2.27;;
14939;SDS011;11825;51.898;8.202;2022-08-21T22:29:48;3.50;;;2.63;;
14939;SDS011;11825;51.898;8.202;2022-08-21T22:34:59;2.27;;;2.00;;
14939;SDS011;11825;51.898;8.202;2022-08-21T22:40:04;5.83;;;2.83;;
14939;SDS011;11825;51.898;8.202;2022-08-21T22:45:24;3.10;;;2.60;;
14939;SDS011;11825;51.898;8.202;2022-08-21T22:50:27;5.17;;;2.60;;
14939;SDS011;11825;51.898;8.202;2022-08-21T22:55:38;5.20;;;3.13;;
14939;SDS011;11825;51.898;8.202;2022-08-21T23:05:54;3.30;;;2.73;;
14939;SDS011;11825;51.898;8.202;2022-08-21T23:11:01;3.40;;;2.60;;
14939;SDS011;11825;51.898;8.202;2022-08-21T23:32:26;2.73;;;2.47;;
14939;SDS011;11825;51.898;8.202;2022-08-21T23:37:56;3.90;;;2.53;;
14939;SDS011;11825;51.898;8.202;2022-08-21T23:49:00;2.73;;;2.53;;
